Time;durP1;ratioP1;P1;durP2;ratioP2;P2;SDS_P1;SDS_P2;PMS_P1;PMS_P2;Temp;Humidity;BMP_temperature;BMP_pressure;BME280_temperature;BME280_humidity;BME280_pressure;Samples;Min_cycle;Max_cycle;Signal;HPM_P1;HPM_P2
2021/11/11 00:00:33;;;;;;;;;9.50;8.00;;;;;5.71;69.44;102116.38;5081112;28;45275;-79
2021/11/11 00:03:00;;;;;;;;;11.25;10.25;;;;;5.81;69.83;102120.31;5082096;28;45352;-80
2021/11/11 00:05:26;;;;;;;;;7.50;7.50;;;;;5.70;69.73;102094.81;5080686;28;45362;-79
2021/11/11 00:07:52;;;;;;;;;11.00;9.75;;;;;5.75;69.64;102110.56;5064053;28;45253;-81
2021/11/11 00:10:19;;;;;;;;;8.75;7.50;;;;;5.58;69.03;102084.72;5063963;28;45447;-79
2021/11/11 00:12:46;;;;;;;;;8.75;7.50;;;;;5.70;69.52;102117.19;5082078;28;46810;-79
2021/11/11 00:15:14;;;;;;;;;13.00;11.00;;;;;5.64;69.45;102117.75;5082120;28;45338;-79
2021/11/11 00:17:41;;;;;;;;;12.50;9.00;;;;;5.64;69.71;102122.03;5081836;28;45354;-79
2021/11/11 00:20:08;;;;;;;;;9.75;7.50;;;;;5.61;69.37;102121.88;5082482;28;45262;-79
2021/11/11 00:22:34;;;;;;;;;9.00;9.00;;;;;5.40;69.10;102109.63;5081738;28;45346;-79
2021/11/11 00:24:59;;;;;;;;;4.00;3.75;;;;;5.37;69.08;102110.38;5081867;28;45240;-79
2021/11/11 00:27:25;;;;;;;;;1.50;1.50;;;;;5.32;69.29;102109.22;5082130;28;45297;-79
2021/11/11 00:29:50;;;;;;;;;12.25;11.00;;;;;5.32;69.46;102109.22;5064156;28;45231;-78
2021/11/11 00:32:16;;;;;;;;;10.25;9.75;;;;;5.33;69.44;102113.59;5080599;28;46035;-78
2021/11/11 00:34:42;;;;;;;;;6.00;6.00;;;;;5.35;69.86;102111.97;5085331;28;45373;-78
2021/11/11 00:37:07;;;;;;;;;13.50;10.50;;;;;5.38;69.56;102091.47;5085233;28;45325;-78
2021/11/11 00:39:33;;;;;;;;;8.50;6.75;;;;;5.16;69.65;102054.22;5085493;28;45302;-79
2021/11/11 00:41:59;;;;;;;;;8.50;8.50;;;;;5.37;69.30;102084.53;5085047;28;46002;-79
2021/11/11 00:44:24;;;;;;;;;7.25;7.25;;;;;5.43;69.45;102083.97;5084860;28;45345;-78
2021/11/11 00:46:49;;;;;;;;;10.50;8.25;;;;;5.40;69.42;102076.94;5085165;28;45454;-78
2021/11/11 00:49:15;;;;;;;;;11.25;6.00;;;;;5.40;70.08;102081.22;5085538;28;45761;-78
2021/11/11 00:51:40;;;;;;;;;10.50;8.25;;;;;5.47;69.16;102091.06;5085132;28;47188;-78
2021/11/11 00:54:06;;;;;;;;;10.50;10.50;;;;;5.47;69.19;102098.81;5085149;28;45260;-78
2021/11/11 00:56:33;;;;;;;;;15.75;12.00;;;;;5.27;69.38;102065.06;5084931;28;45237;-78
2021/11/11 00:59:00;;;;;;;;;11.50;11.00;;;;;5.31;69.50;102073.88;5085336;28;45546;-78
2021/11/11 01:01:28;;;;;;;;;7.50;7.50;;;;;5.36;69.03;102080.16;5084387;28;45243;-78
2021/11/11 01:03:59;;;;;;;;;13.00;11.25;;;;;5.43;69.14;102086.53;5084899;28;45322;-78
2021/11/11 01:06:28;;;;;;;;;11.00;8.75;;;;;5.34;68.96;102068.88;5084755;28;45226;-78
2021/11/11 01:08:54;;;;;;;;;13.25;13.00;;;;;5.43;69.09;102076.22;5083294;28;45322;-78
2021/11/11 01:11:19;;;;;;;;;8.00;6.75;;;;;5.43;69.09;102073.63;5084631;28;46125;-79
2021/11/11 01:13:45;;;;;;;;;10.00;9.50;;;;;5.24;68.90;102059.75;5066373;28;45358;-79
2021/11/11 01:16:11;;;;;;;;;9.25;8.50;;;;;5.22;68.95;102076.88;5084568;28;45256;-79
2021/11/11 01:18:37;;;;;;;;;9.50;7.75;;;;;5.06;69.64;102057.97;5084757;28;45431;-79
2021/11/11 01:21:02;;;;;;;;;14.00;12.75;;;;;5.08;69.19;102063.22;5084211;28;45279;-78
2021/11/11 01:23:28;;;;;;;;;12.00;10.75;;;;;5.10;69.31;102058.16;5084481;28;45240;-79
2021/11/11 01:25:54;;;;;;;;;5.75;2.75;;;;;5.11;69.71;102053.06;5084642;28;45381;-78
2021/11/11 01:28:19;;;;;;;;;10.25;6.25;;;;;5.11;69.53;102047.03;5084840;28;45457;-78
2021/11/11 01:30:45;;;;;;;;;10.75;9.50;;;;;5.26;69.14;102067.56;5065916;28;47278;-79
2021/11/11 01:33:12;;;;;;;;;7.00;6.25;;;;;4.93;69.01;102007.41;5084108;28;45250;-79
2021/11/11 01:35:38;;;;;;;;;9.50;8.50;;;;;5.24;68.95;102064.91;5084662;28;45330;-78
2021/11/11 01:38:04;;;;;;;;;8.50;8.00;;;;;5.19;69.60;102064.69;5084462;28;45288;-79
2021/11/11 01:40:30;;;;;;;;;9.00;7.00;;;;;5.22;69.81;102063.06;5083705;28;46858;-78
2021/11/11 01:42:59;;;;;;;;;10.50;10.50;;;;;5.01;69.04;102031.06;5083946;28;45310;-78
2021/11/11 01:45:31;;;;;;;;;10.75;9.75;;;;;5.07;69.10;102039.13;5084279;28;45217;-78
2021/11/11 01:47:58;;;;;;;;;11.75;8.00;;;;;5.18;69.43;102051.72;5084214;28;45173;-78
2021/11/11 01:50:24;;;;;;;;;13.25;7.25;;;;;5.16;69.07;102053.31;5083893;28;45271;-78
2021/11/11 01:52:51;;;;;;;;;9.75;6.50;;;;;5.13;69.67;102053.16;5083903;28;45246;-78
2021/11/11 01:55:16;;;;;;;;;8.75;7.25;;;;;5.09;69.40;102043.47;5065590;28;45383;-78
2021/11/11 01:57:42;;;;;;;;;8.50;8.50;;;;;4.99;69.43;102032.66;5084043;28;45252;-78
2021/11/11 02:00:12;;;;;;;;;9.75;9.25;;;;;5.11;68.86;102059.94;5065585;28;48285;-79
2021/11/11 02:02:38;;;;;;;;;13.25;9.25;;;;;4.86;69.34;102007.00;5083378;28;45247;-78
2021/11/11 02:05:04;;;;;;;;;12.50;10.25;;;;;5.07;69.38;102036.56;5083806;28;45306;-78
2021/11/11 02:07:29;;;;;;;;;8.25;7.25;;;;;4.95;68.95;102028.16;5084276;28;45550;-78
2021/11/11 02:09:55;;;;;;;;;6.75;6.75;;;;;4.93;69.34;102034.91;5083424;28;45263;-78
2021/11/11 02:12:21;;;;;;;;;8.75;8.75;;;;;4.96;69.16;102044.53;5065499;28;45306;-77
2021/11/11 02:14:47;;;;;;;;;11.00;9.00;;;;;4.90;68.59;102045.97;5084059;28;45405;-78
2021/11/11 02:17:13;;;;;;;;;12.00;10.00;;;;;4.85;69.30;102036.22;5083767;28;45523;-78
2021/11/11 02:19:44;;;;;;;;;11.50;8.50;;;;;4.68;68.50;102010.38;5083545;28;45433;-78
2021/11/11 02:22:10;;;;;;;;;8.50;7.00;;;;;4.67;69.41;102016.38;5083496;28;45309;-78
2021/11/11 02:24:35;;;;;;;;;11.00;6.00;;;;;4.61;69.32;102003.13;5083670;28;45153;-78
2021/11/11 02:27:00;;;;;;;;;6.25;6.25;;;;;4.66;69.39;102020.63;5083995;28;45198;-78
2021/11/11 02:29:27;;;;;;;;;5.50;5.50;;;;;4.75;69.51;102027.09;5083876;28;45569;-78
2021/11/11 02:31:52;;;;;;;;;8.75;8.25;;;;;4.76;69.02;102039.19;5078725;28;46572;-79
2021/11/11 02:34:19;;;;;;;;;7.25;6.75;;;;;4.78;69.54;102037.59;5063213;28;45371;-78
2021/11/11 02:36:58;;;;;;;;;15.00;7.75;;;;;4.71;68.82;102038.94;5063381;28;45350;-78
2021/11/11 02:39:29;;;;;;;;;9.50;9.50;;;;;4.69;69.59;102056.91;5062748;28;45281;-78
2021/11/11 02:41:54;;;;;;;;;10.50;9.00;;;;;4.70;69.29;102047.50;5044556;28;45288;-78
2021/11/11 02:44:20;;;;;;;;;9.00;8.00;;;;;4.59;69.49;102034.00;5063069;28;45284;-78
2021/11/11 02:46:45;;;;;;;;;12.75;12.50;;;;;4.72;69.62;102056.22;5062985;28;45453;-78
2021/11/11 02:49:10;;;;;;;;;9.00;7.25;;;;;4.74;69.64;102043.38;5061722;28;48135;-78
2021/11/11 02:51:36;;;;;;;;;11.75;9.50;;;;;4.74;69.26;102046.84;5062965;28;45368;-79
2021/11/11 02:54:02;;;;;;;;;8.75;8.75;;;;;4.72;69.01;102045.88;5062979;28;45316;-78
2021/11/11 02:56:27;;;;;;;;;13.50;10.00;;;;;4.56;70.00;102024.41;5062332;28;45368;-79
2021/11/11 02:58:52;;;;;;;;;13.00;10.50;;;;;4.59;69.03;102052.06;5062263;28;45944;-79
2021/11/11 03:01:18;;;;;;;;;8.00;8.00;;;;;4.57;69.68;102040.78;5062215;28;45368;-78
2021/11/11 03:03:43;;;;;;;;;11.75;10.50;;;;;4.62;69.86;102043.63;5062790;28;45271;-78
2021/11/11 03:06:09;;;;;;;;;4.75;4.25;;;;;4.61;69.40;102052.13;5044709;28;45235;-78
2021/11/11 03:08:35;;;;;;;;;14.25;9.75;;;;;4.56;69.77;102034.72;5062545;28;45248;-78
2021/11/11 03:11:04;;;;;;;;;11.00;8.00;;;;;4.48;69.44;102017.97;5062671;28;45241;-78
2021/11/11 03:13:29;;;;;;;;;16.25;10.50;;;;;4.57;69.28;102030.47;5062671;28;45362;-78
2021/11/11 03:15:56;;;;;;;;;9.25;7.75;;;;;4.65;68.89;102048.91;5062686;28;45338;-78
2021/11/11 03:18:21;;;;;;;;;9.25;7.75;;;;;4.57;69.36;102036.50;5062284;28;46340;-78
2021/11/11 03:20:47;;;;;;;;;16.75;11.00;;;;;4.57;69.33;102033.91;5061085;28;45234;-78
2021/11/11 03:23:13;;;;;;;;;3.50;3.50;;;;;4.54;68.85;102033.75;5062627;28;45293;-78
2021/11/11 03:25:38;;;;;;;;;7.00;5.00;;;;;4.63;69.44;102037.66;5062987;28;45242;-78
2021/11/11 03:28:05;;;;;;;;;0.50;0.50;;;;;4.60;69.30;102022.91;5044502;28;47158;-78
2021/11/11 03:30:31;;;;;;;;;4.25;4.25;;;;;4.61;68.80;102036.66;5060910;28;45266;-77
2021/11/11 03:32:57;;;;;;;;;13.25;11.00;;;;;4.44;68.29;102023.72;5075271;28;45476;-78
2021/11/11 03:35:23;;;;;;;;;8.00;5.50;;;;;4.47;68.80;102036.78;5064889;28;45589;-78
2021/11/11 03:37:52;;;;;;;;;10.25;5.75;;;;;4.43;69.11;102035.75;5081194;28;47256;-78
2021/11/11 03:40:21;;;;;;;;;5.25;2.50;;;;;4.48;68.99;102045.44;5082726;28;45247;-78
2021/11/11 03:42:48;;;;;;;;;7.00;5.00;;;;;4.44;68.29;102049.50;5064400;28;45380;-78
2021/11/11 03:45:14;;;;;;;;;10.50;6.75;;;;;4.18;69.22;102002.56;5082814;28;45283;-79
2021/11/11 03:47:40;;;;;;;;;8.50;6.25;;;;;4.32;69.22;102044.59;5082087;28;46325;-79
2021/11/11 03:50:06;;;;;;;;;9.00;8.00;;;;;4.29;68.96;102047.88;5064208;28;45253;-78
2021/11/11 03:52:32;;;;;;;;;8.25;6.50;;;;;4.28;68.92;102052.94;5082594;28;45216;-79
2021/11/11 03:54:58;;;;;;;;;12.75;7.25;;;;;4.10;68.70;102032.19;5082450;28;45525;-78
2021/11/11 03:57:23;;;;;;;;;12.25;8.75;;;;;4.20;68.53;102044.81;5082290;28;45217;-78
2021/11/11 03:59:49;;;;;;;;;13.25;8.25;;;;;4.20;69.34;102049.06;5082206;28;45227;-78
2021/11/11 04:02:14;;;;;;;;;10.00;9.00;;;;;4.15;69.54;102048.78;5082298;28;45220;-78
2021/11/11 04:04:41;;;;;;;;;6.00;4.25;;;;;4.20;68.75;102049.97;5082571;28;45464;-77
2021/11/11 04:07:07;;;;;;;;;7.25;7.25;;;;;4.27;68.23;102056.34;5084127;28;46341;-79
2021/11/11 04:09:33;;;;;;;;;11.75;9.50;;;;;4.23;69.16;102044.06;5085630;28;45317;-78
2021/11/11 04:11:58;;;;;;;;;9.25;5.25;;;;;4.03;68.68;102021.53;5085790;28;45258;-78
2021/11/11 04:14:24;;;;;;;;;5.00;5.00;;;;;4.14;68.68;102054.75;5086061;28;45347;-78
2021/11/11 04:16:50;;;;;;;;;7.25;7.25;;;;;4.18;68.39;102072.16;5085400;28;46113;-79
2021/11/11 04:19:15;;;;;;;;;6.50;6.50;;;;;4.08;68.49;102052.72;5085833;28;45272;-78
2021/11/11 04:21:41;;;;;;;;;9.50;8.50;;;;;4.21;68.23;102067.19;5085867;28;45244;-78
2021/11/11 04:24:07;;;;;;;;;10.25;10.00;;;;;4.19;68.65;102073.94;5067586;28;45474;-78
2021/11/11 04:26:37;;;;;;;;;8.50;7.75;;;;;4.10;68.36;102078.59;5085561;28;45314;-78
2021/11/11 04:29:06;;;;;;;;;10.25;9.00;;;;;4.09;68.35;102102.56;5085398;28;45268;-78
2021/11/11 04:31:36;;;;;;;;;7.00;6.25;;;;;3.90;68.03;102068.91;5084928;28;45248;-79
2021/11/11 04:34:05;;;;;;;;;8.50;5.50;;;;;3.89;68.25;102081.72;5085415;28;45500;-79
2021/11/11 04:39:28;;;;;;;;;7.50;5.50;;;;;3.95;68.69;102092.34;5084956;28;45431;-79
2021/11/11 04:59:37;;;;;;;;;11.25;8.25;;;;;3.74;68.27;102105.75;5065347;28;45426;-78
2021/11/11 05:03:39;;;;;;;;;6.25;5.00;;;;;3.69;68.29;102089.16;5085055;28;45424;-78
2021/11/11 05:06:05;;;;;;;;;14.25;8.75;;;;;3.69;68.68;102096.88;5085150;28;45382;-78
2021/11/11 05:08:31;;;;;;;;;3.75;3.75;;;;;3.62;67.96;102084.44;5066259;28;48473;-78
2021/11/11 05:10:58;;;;;;;;;8.25;8.25;;;;;3.70;68.48;102103.81;5084397;28;45296;-78
2021/11/11 05:13:24;;;;;;;;;9.50;5.00;;;;;3.71;68.22;102107.28;5084629;28;45270;-78
2021/11/11 05:15:50;;;;;;;;;10.50;9.25;;;;;3.41;67.67;102056.63;5083347;28;45550;-78
2021/11/11 05:18:16;;;;;;;;;8.00;7.00;;;;;3.73;68.11;102111.72;5083935;28;45331;-78
2021/11/11 05:20:41;;;;;;;;;8.25;7.25;;;;;3.67;67.42;102109.66;5084679;28;45380;-78
2021/11/11 05:23:07;;;;;;;;;8.25;8.25;;;;;3.53;68.31;102090.81;5084897;28;45307;-78
2021/11/11 05:25:32;;;;;;;;;9.25;8.00;;;;;3.46;67.45;102091.25;5084844;28;45643;-78
2021/11/11 05:27:57;;;;;;;;;7.50;4.00;;;;;3.51;68.24;102099.25;5084607;28;45303;-79
2021/11/11 05:30:24;;;;;;;;;5.25;5.25;;;;;3.63;68.10;102109.38;5084334;28;45248;-77
2021/11/11 05:32:50;;;;;;;;;3.25;3.25;;;;;3.65;68.37;102107.81;5084316;28;45303;-79
2021/11/11 05:35:16;;;;;;;;;9.00;4.75;;;;;3.53;68.04;102095.97;5084789;28;45323;-79
2021/11/11 05:37:43;;;;;;;;;4.75;4.75;;;;;3.50;67.23;102106.09;5084436;28;45222;-80
2021/11/11 05:40:11;;;;;;;;;8.25;6.25;;;;;3.52;68.32;102119.94;5084103;27;45745;-79
2021/11/11 05:42:36;;;;;;;;;6.00;5.00;;;;;3.48;67.56;102127.38;5084272;28;45329;-79
2021/11/11 05:45:05;;;;;;;;;6.25;3.75;;;;;3.49;68.32;102121.47;5084546;28;45341;-79
2021/11/11 05:47:31;;;;;;;;;10.25;8.75;;;;;3.47;67.91;102128.19;5082592;28;48601;-80
2021/11/11 05:49:56;;;;;;;;;8.50;7.50;;;;;3.38;67.43;102120.81;5084120;28;45284;-79
2021/11/11 05:52:22;;;;;;;;;10.75;6.75;;;;;3.43;67.85;102132.25;5084233;28;45229;-79
2021/11/11 05:54:47;;;;;;;;;7.75;5.75;;;;;3.29;67.96;102119.47;5066271;28;45477;-78
2021/11/11 05:57:13;;;;;;;;;5.50;5.50;;;;;3.36;68.21;102142.97;5084145;28;45296;-79
2021/11/11 05:59:39;;;;;;;;;3.50;3.50;;;;;3.32;67.87;102144.50;5066046;28;45215;-79
2021/11/11 06:02:06;;;;;;;;;7.75;3.25;;;;;3.36;67.79;102151.59;5084018;28;45274;-79
2021/11/11 06:04:31;;;;;;;;;7.50;5.00;;;;;3.27;68.51;102133.91;5083886;28;45375;-79
2021/11/11 06:06:57;;;;;;;;;4.75;4.75;;;;;3.33;67.80;102147.94;5083366;28;45324;-80
2021/11/11 06:09:22;;;;;;;;;5.25;5.25;;;;;3.36;68.70;102155.84;5065618;28;45871;-79
2021/11/11 06:11:47;;;;;;;;;8.00;4.00;;;;;3.29;67.93;102152.91;5084083;28;45577;-79
2021/11/11 06:14:13;;;;;;;;;15.00;7.50;;;;;3.26;68.54;102170.75;5084091;28;45315;-79
2021/11/11 06:16:38;;;;;;;;;8.25;7.75;;;;;3.27;68.18;102171.63;5083628;28;45386;-79
2021/11/11 06:19:06;;;;;;;;;4.00;4.00;;;;;3.22;68.58;102157.59;5083721;28;45349;-79
2021/11/11 06:21:32;;;;;;;;;4.50;4.50;;;;;3.25;68.10;102148.34;5083592;28;45283;-79
2021/11/11 06:23:57;;;;;;;;;6.75;6.25;;;;;3.35;68.77;102167.84;5083638;28;45292;-79
2021/11/11 06:26:23;;;;;;;;;5.50;4.25;;;;;3.45;68.67;102176.13;5083361;28;45836;-80
2021/11/11 06:28:50;;;;;;;;;3.75;3.75;;;;;3.49;67.95;102178.13;5083670;28;45316;-79
2021/11/11 06:31:16;;;;;;;;;4.75;4.75;;;;;3.63;68.42;102205.59;5082092;28;45189;-78
2021/11/11 06:33:42;;;;;;;;;4.00;4.00;;;;;3.72;67.52;102214.66;5083359;28;45512;-78
2021/11/11 06:36:08;;;;;;;;;3.00;3.00;;;;;3.64;67.76;102191.91;5081884;28;47231;-79
2021/11/11 06:38:33;;;;;;;;;1.00;1.00;;;;;3.72;67.93;102196.63;5082673;28;45250;-79
2021/11/11 06:40:59;;;;;;;;;8.00;4.75;;;;;3.80;67.34;102209.16;5083567;28;45381;-78
2021/11/11 06:43:24;;;;;;;;;4.50;4.50;;;;;3.80;67.12;102204.03;5083607;28;45504;-79
2021/11/11 06:45:50;;;;;;;;;3.00;3.00;;;;;3.77;67.22;102214.13;5082785;28;45422;-79
2021/11/11 06:48:16;;;;;;;;;8.25;3.75;;;;;3.86;67.00;102234.41;5083054;28;45319;-78
2021/11/11 06:50:43;;;;;;;;;5.50;5.50;;;;;3.85;67.20;102234.31;5083424;28;45209;-79
2021/11/11 06:53:10;;;;;;;;;5.25;5.00;;;;;3.65;67.07;102208.25;5083332;28;45387;-79
2021/11/11 06:55:37;;;;;;;;;5.25;5.25;;;;;3.86;66.78;102231.84;5082556;28;45300;-78
2021/11/11 06:58:03;;;;;;;;;8.50;6.50;;;;;3.77;67.44;102208.13;5082831;28;45374;-78
2021/11/11 07:00:29;;;;;;;;;0.00;0.00;;;;;4.03;66.78;102238.03;5083010;28;45484;-79
2021/11/11 07:02:55;;;;;;;;;4.75;4.50;;;;;3.98;67.38;102220.50;5081642;28;45403;-79
2021/11/11 07:05:20;;;;;;;;;4.75;4.00;;;;;4.06;66.81;102250.19;5082533;28;45624;-79
2021/11/11 07:07:46;;;;;;;;;8.00;2.00;;;;;3.87;66.45;102222.44;5082752;28;45256;-80
2021/11/11 07:10:13;;;;;;;;;8.00;7.50;;;;;4.01;66.58;102249.91;5083278;28;45253;-77
2021/11/11 07:12:39;;;;;;;;;4.50;4.50;;;;;3.90;66.53;102236.41;5083263;28;45469;-79
2021/11/11 07:15:07;;;;;;;;;1.75;0.00;;;;;3.97;67.10;102252.22;5082737;28;45350;-79
2021/11/11 07:17:34;;;;;;;;;5.75;5.75;;;;;3.83;67.50;102233.34;5082316;28;45341;-78
2021/11/11 07:20:01;;;;;;;;;7.25;7.25;;;;;3.89;67.44;102247.47;5082924;28;45436;-79
2021/11/11 07:22:26;;;;;;;;;7.75;7.75;;;;;3.89;68.06;102254.34;5064662;28;45595;-79
2021/11/11 07:24:51;;;;;;;;;6.00;6.00;;;;;3.91;67.41;102251.06;5082146;28;46199;-79
2021/11/11 07:27:18;;;;;;;;;6.25;6.00;;;;;3.86;67.79;102230.97;5082876;28;45316;-79
2021/11/11 07:29:44;;;;;;;;;8.75;6.00;;;;;3.98;67.77;102243.69;5082611;28;45252;-79
2021/11/11 07:32:09;;;;;;;;;8.25;6.00;;;;;3.93;67.73;102240.84;5082394;28;45557;-80
2021/11/11 07:34:36;;;;;;;;;7.75;4.00;;;;;3.99;68.11;102248.94;5082853;28;45546;-79
2021/11/11 07:37:03;;;;;;;;;9.50;7.50;;;;;3.93;67.50;102243.41;5083409;28;45396;-78
2021/11/11 07:39:28;;;;;;;;;9.25;5.00;;;;;4.00;68.06;102253.28;5065556;28;45296;-78
2021/11/11 07:41:54;;;;;;;;;7.25;5.25;;;;;3.90;67.59;102228.66;5084264;28;45343;-79
2021/11/11 07:44:19;;;;;;;;;7.50;5.00;;;;;4.02;67.78;102249.09;5085826;28;47193;-79
2021/11/11 07:46:45;;;;;;;;;10.25;4.50;;;;;3.86;67.78;102224.09;5085921;28;45386;-79
2021/11/11 07:49:11;;;;;;;;;11.75;6.75;;;;;3.98;67.73;102249.72;5086120;28;45322;-79
2021/11/11 07:51:37;;;;;;;;;4.25;3.75;;;;;4.06;68.37;102252.78;5086477;28;45520;-79
2021/11/11 07:54:03;;;;;;;;;8.25;8.25;;;;;4.15;68.38;102255.00;5085812;28;46053;-79
2021/11/11 07:56:29;;;;;;;;;4.00;4.00;;;;;4.09;67.89;102229.75;5085825;28;45255;-79
2021/11/11 07:58:55;;;;;;;;;8.25;8.00;;;;;4.18;67.82;102248.34;5086293;28;45232;-79
2021/11/11 08:01:20;;;;;;;;;4.75;4.75;;;;;4.24;68.41;102242.66;5086005;28;45234;-79
2021/11/11 08:03:46;;;;;;;;;5.00;5.00;;;;;4.25;68.25;102251.28;5085500;28;46401;-80
2021/11/11 08:06:12;;;;;;;;;14.75;9.00;;;;;4.15;68.32;102229.22;5086009;28;45534;-80
2021/11/11 08:08:38;;;;;;;;;6.50;6.50;;;;;4.21;68.80;102239.00;5085993;28;45372;-79
2021/11/11 08:11:04;;;;;;;;;9.00;5.00;;;;;4.25;68.60;102228.97;5085992;28;45456;-77
2021/11/11 08:13:29;;;;;;;;;10.75;5.00;;;;;4.39;68.06;102237.53;5085376;28;46292;-79
2021/11/11 08:15:56;;;;;;;;;7.75;7.50;;;;;4.43;67.94;102233.41;5085568;28;45362;-79
2021/11/11 08:18:21;;;;;;;;;14.25;9.00;;;;;4.47;68.60;102219.03;5085683;28;45362;-79
2021/11/11 08:20:49;;;;;;;;;8.50;7.25;;;;;4.49;68.72;102215.72;5067401;28;45274;-79
2021/11/11 08:23:17;;;;;;;;;9.75;9.00;;;;;4.51;68.42;102237.34;5085447;28;46231;-80
2021/11/11 08:25:46;;;;;;;;;9.75;9.25;;;;;4.47;67.91;102211.28;5084300;28;45411;-80
2021/11/11 08:28:13;;;;;;;;;8.50;8.00;;;;;4.44;68.01;102199.09;5085659;28;45242;-79
2021/11/11 08:30:38;;;;;;;;;10.25;8.00;;;;;4.56;68.14;102220.44;5085423;28;45242;-79
2021/11/11 08:33:04;;;;;;;;;12.25;7.25;;;;;4.73;68.67;102222.19;5085226;28;46745;-78
2021/11/11 08:35:31;;;;;;;;;11.25;10.25;;;;;4.68;68.02;102202.19;5085331;28;45237;-78
2021/11/11 08:37:56;;;;;;;;;11.75;5.00;;;;;4.92;67.90;102219.88;5085121;28;45368;-78
2021/11/11 08:40:23;;;;;;;;;2.00;1.00;;;;;5.00;67.74;102212.56;5085310;28;45385;-78
2021/11/11 08:42:51;;;;;;;;;8.75;3.25;;;;;4.99;67.46;102210.75;5085350;28;46313;-78
2021/11/11 08:45:17;;;;;;;;;3.75;3.00;;;;;5.00;68.25;102211.66;5085229;28;45300;-78
2021/11/11 08:47:42;;;;;;;;;10.00;10.00;;;;;5.05;68.33;102210.19;5084930;28;45351;-78
2021/11/11 08:50:11;;;;;;;;;8.25;5.75;;;;;5.13;68.01;102203.78;5085322;28;45550;-79
2021/11/11 08:52:43;;;;;;;;;5.00;5.00;;;;;5.10;67.78;102179.47;5084028;28;47087;-79
2021/11/11 08:55:08;;;;;;;;;8.75;6.25;;;;;5.32;68.03;102200.50;5084705;28;45241;-79
2021/11/11 08:57:34;;;;;;;;;6.00;5.50;;;;;5.30;67.48;102184.03;5066547;28;45327;-79
2021/11/11 09:00:00;;;;;;;;;6.25;6.25;;;;;5.27;67.71;102168.38;5085320;28;45259;-79
2021/11/11 09:02:25;;;;;;;;;11.25;8.75;;;;;5.31;67.91;102165.16;5083133;28;46089;-77
2021/11/11 09:04:51;;;;;;;;;9.50;9.50;;;;;5.49;67.67;102184.13;5084982;28;45204;-79
2021/11/11 09:07:17;;;;;;;;;10.50;10.50;;;;;5.46;67.68;102161.63;5084431;28;45199;-79
2021/11/11 09:09:44;;;;;;;;;6.00;6.00;;;;;5.61;67.52;102186.47;5085045;28;45351;-77
2021/11/11 09:12:10;;;;;;;;;5.75;5.75;;;;;5.79;67.74;102189.13;5066684;28;48227;-78
2021/11/11 09:14:35;;;;;;;;;8.25;8.25;;;;;5.93;67.11;102192.41;5066090;28;45354;-79
2021/11/11 09:17:01;;;;;;;;;11.50;9.50;;;;;5.94;66.88;102176.09;5084515;28;45411;-79
2021/11/11 09:19:26;;;;;;;;;7.50;7.50;;;;;6.02;66.92;102187.72;5066405;28;45351;-79
2021/11/11 09:21:52;;;;;;;;;6.50;6.50;;;;;5.97;66.42;102181.41;5084235;28;45516;-79
2021/11/11 09:24:18;;;;;;;;;5.75;5.75;;;;;5.87;66.70;102182.66;5084547;28;45262;-78
2021/11/11 09:26:43;;;;;;;;;8.00;8.00;;;;;5.77;67.12;102165.81;5084646;28;45468;-78
2021/11/11 09:29:09;;;;;;;;;12.25;9.25;;;;;5.86;66.53;102183.47;5084592;28;45403;-78
2021/11/11 09:31:38;;;;;;;;;9.75;7.25;;;;;5.73;67.20;102163.88;5065325;28;48395;-79
2021/11/11 09:34:04;;;;;;;;;2.75;1.00;;;;;5.87;67.01;102177.50;5065815;28;45371;-79
2021/11/11 09:36:30;;;;;;;;;9.00;5.75;;;;;5.90;67.34;102175.06;5084282;28;45361;-78
2021/11/11 09:38:56;;;;;;;;;10.00;7.75;;;;;6.01;67.04;102185.06;5084348;28;45252;-79
2021/11/11 09:41:22;;;;;;;;;7.00;6.25;;;;;5.99;67.24;102181.50;5084392;28;46200;-78
2021/11/11 09:43:48;;;;;;;;;9.25;5.75;;;;;5.98;67.46;102188.38;5084242;28;45268;-78
2021/11/11 09:46:17;;;;;;;;;10.50;8.50;;;;;6.06;67.22;102193.97;5065724;28;45267;-78
2021/11/11 09:48:43;;;;;;;;;10.25;6.25;;;;;6.21;67.47;102196.44;5066542;28;45510;-78
2021/11/11 09:51:14;;;;;;;;;7.00;5.25;;;;;6.19;67.18;102172.22;5065861;28;46310;-78
2021/11/11 09:53:52;;;;;;;;;7.75;7.75;;;;;6.29;67.42;102182.22;5065909;28;45238;-79
2021/11/11 09:59:02;;;;;;;;;9.25;9.25;;;;;6.57;66.70;102198.19;5085209;28;45298;-79
2021/11/11 10:01:27;;;;;;;;;11.25;7.25;;;;;6.61;66.65;102191.47;5084260;28;45402;-80
2021/11/11 10:03:54;;;;;;;;;18.50;11.25;;;;;6.59;66.96;102193.97;5083688;28;45342;-80
2021/11/11 10:06:22;;;;;;;;;6.50;6.50;;;;;6.58;66.59;102182.72;5065796;28;45410;-78
2021/11/11 10:08:54;;;;;;;;;11.00;7.50;;;;;6.65;66.60;102190.81;5084967;28;45218;-79
2021/11/11 10:11:26;;;;;;;;;13.25;8.50;;;;;6.76;66.55;102197.38;5065753;28;48164;-81
2021/11/11 10:13:57;;;;;;;;;3.00;0.00;;;;;6.77;66.63;102186.19;5084601;28;45366;-80
2021/11/11 10:16:23;;;;;;;;;8.75;6.25;;;;;6.85;66.17;102178.81;5084703;28;45157;-81
2021/11/11 10:18:52;;;;;;;;;6.75;6.50;;;;;6.94;66.80;102178.34;5083699;28;45297;-79
2021/11/11 10:21:33;;;;;;;;;10.75;8.75;;;;;7.07;65.87;102182.38;5083600;28;46151;-80
2021/11/11 10:24:20;;;;;;;;;12.00;9.75;;;;;7.13;66.34;102177.50;5064720;28;45379;-78
2021/11/11 10:27:37;;;;;;;;;12.75;10.75;;;;;7.12;65.84;102172.25;5083146;28;45157;-79
2021/11/11 10:30:27;;;;;;;;;6.75;6.50;;;;;7.10;66.16;102162.72;5083868;28;45373;-79
2021/11/11 10:32:54;;;;;;;;;6.00;6.00;;;;;7.19;66.10;102161.34;5041349;28;47432;-80
2021/11/11 10:35:28;;;;;;;;;14.00;9.50;;;;;7.11;65.94;102140.31;5042999;28;45243;-79
2021/11/11 10:38:02;;;;;;;;;6.00;6.00;;;;;7.15;65.95;102139.63;5043055;28;45193;-80
2021/11/11 10:40:40;;;;;;;;;18.25;10.50;;;;;7.30;65.57;102149.78;5042897;28;45236;-78
2021/11/11 10:43:10;;;;;;;;;13.75;9.00;;;;;7.35;65.90;102148.28;5042275;28;45962;-78
2021/11/11 10:45:40;;;;;;;;;10.50;8.75;;;;;7.33;65.62;102131.78;5043094;28;45271;-78
2021/11/11 10:48:09;;;;;;;;;4.75;4.75;;;;;7.50;65.56;102141.13;5043373;28;45209;-78
2021/11/11 10:50:39;;;;;;;;;7.50;7.50;;;;;7.66;65.30;102163.41;5043314;28;45295;-79
2021/11/11 10:53:09;;;;;;;;;11.25;7.25;;;;;7.66;65.64;102166.00;5042298;28;45239;-78
2021/11/11 10:55:49;;;;;;;;;11.00;7.50;;;;;7.66;65.72;102150.47;5042217;28;45327;-79
2021/11/11 10:58:36;;;;;;;;;8.00;8.00;;;;;7.81;65.33;102169.25;5042839;28;45330;-78
2021/11/11 11:01:10;;;;;;;;;7.25;6.75;;;;;7.93;65.35;102160.25;5042896;28;45240;-79
2021/11/11 11:03:39;;;;;;;;;8.25;6.50;;;;;8.05;65.51;102163.34;5042778;28;45367;-79
2021/11/11 11:06:08;;;;;;;;;9.75;8.25;;;;;8.11;65.52;102149.75;5024557;28;45848;-79
2021/11/11 11:08:38;;;;;;;;;12.25;9.50;;;;;8.23;65.29;102151.97;5042310;28;45225;-79
2021/11/11 11:11:07;;;;;;;;;17.00;9.25;;;;;8.36;64.67;102150.75;5041871;28;45399;-79
2021/11/11 11:13:46;;;;;;;;;12.75;8.00;;;;;8.41;65.09;102137.97;5042361;28;46072;-79
2021/11/11 11:16:18;;;;;;;;;14.00;9.50;;;;;8.39;65.32;102126.66;5041368;28;45892;-78
2021/11/11 11:18:47;;;;;;;;;10.50;9.25;;;;;8.40;65.43;102131.91;5042334;28;45252;-79
2021/11/11 11:21:16;;;;;;;;;8.75;8.25;;;;;8.39;65.21;102126.66;5042488;28;45579;-79
2021/11/11 11:23:52;;;;;;;;;22.25;10.00;;;;;8.42;65.23;102117.25;5042162;28;46292;-79
2021/11/11 11:26:17;;;;;;;;;2.50;2.50;;;;;8.41;65.18;102114.59;5041939;28;45228;-79
2021/11/11 11:28:51;;;;;;;;;15.25;12.00;;;;;8.41;65.61;102115.50;5042136;28;45793;-79
2021/11/11 11:31:32;;;;;;;;;10.75;10.25;;;;;8.22;65.62;102075.84;5049865;28;45311;-79
2021/11/11 11:34:06;;;;;;;;;17.25;14.25;;;;;8.36;65.67;102093.66;5082777;28;46030;-79
2021/11/11 11:36:39;;;;;;;;;13.00;9.25;;;;;8.40;65.45;102086.88;5064199;28;46146;-78
2021/11/11 11:39:06;;;;;;;;;8.50;7.50;;;;;8.52;65.52;102095.16;5082356;28;45305;-79
2021/11/11 11:41:36;;;;;;;;;16.50;12.50;;;;;8.52;65.79;102105.56;5082685;28;45456;-80
2021/11/11 11:44:15;;;;;;;;;8.50;7.25;;;;;8.46;65.65;102081.94;5082235;28;45234;-80
2021/11/11 11:46:51;;;;;;;;;10.00;9.00;;;;;8.59;65.18;102102.41;5082243;28;45233;-78
2021/11/11 11:49:17;;;;;;;;;13.50;8.00;;;;;8.67;65.55;102110.47;5081577;28;45275;-79
2021/11/11 11:51:42;;;;;;;;;17.50;13.00;;;;;8.65;65.22;102093.97;5082795;28;45510;-79
2021/11/11 11:54:19;;;;;;;;;9.00;9.00;;;;;8.86;65.46;102108.59;5082365;28;46228;-79